sensor_id;sensor_type;location;lat;lon;timestamp;P1;durP1;ratioP1;P2;durP2;ratioP2
69981;SDS011;57319;56.274;43.980;2022-12-11T00:01:30;5.45;;;4.43;;
69981;SDS011;57319;56.274;43.980;2022-12-11T00:03:59;5.15;;;3.70;;
69981;SDS011;57319;56.274;43.980;2022-12-11T00:06:24;4.00;;;3.70;;
69981;SDS011;57319;56.274;43.980;2022-12-11T00:08:50;3.42;;;3.13;;
69981;SDS011;57319;56.274;43.980;2022-12-11T00:11:18;3.33;;;3.05;;
69981;SDS011;57319;56.274;43.980;2022-12-11T00:13:45;4.05;;;3.72;;
69981;SDS011;57319;56.274;43.980;2022-12-11T00:16:10;3.60;;;3.33;;
69981;SDS011;57319;56.274;43.980;2022-12-11T00:18:36;3.63;;;3.40;;
69981;SDS011;57319;56.274;43.980;2022-12-11T00:21:03;3.60;;;3.30;;
69981;SDS011;57319;56.274;43.980;2022-12-11T00:23:30;4.00;;;3.30;;
69981;SDS011;57319;56.274;43.980;2022-12-11T00:25:56;4.35;;;3.55;;
69981;SDS011;57319;56.274;43.980;2022-12-11T00:28:21;3.50;;;3.20;;
69981;SDS011;57319;56.274;43.980;2022-12-11T00:30:48;3.33;;;3.13;;
69981;SDS011;57319;56.274;43.980;2022-12-11T00:33:14;3.72;;;3.42;;
69981;SDS011;57319;56.274;43.980;2022-12-11T00:35:41;4.03;;;3.20;;
69981;SDS011;57319;56.274;43.980;2022-12-11T00:38:15;3.00;;;2.75;;
69981;SDS011;57319;56.274;43.980;2022-12-11T00:40:41;3.45;;;3.25;;
69981;SDS011;57319;56.274;43.980;2022-12-11T00:43:08;7.05;;;3.70;;
69981;SDS011;57319;56.274;43.980;2022-12-11T00:45:37;6.25;;;3.40;;
69981;SDS011;57319;56.274;43.980;2022-12-11T00:48:04;4.22;;;3.80;;
69981;SDS011;57319;56.274;43.980;2022-12-11T00:50:31;3.75;;;3.45;;
69981;SDS011;57319;56.274;43.980;2022-12-11T00:52:57;3.72;;;3.47;;
69981;SDS011;57319;56.274;43.980;2022-12-11T00:55:22;3.53;;;3.22;;
69981;SDS011;57319;56.274;43.980;2022-12-11T00:57:52;2.95;;;2.75;;
69981;SDS011;57319;56.274;43.980;2022-12-11T01:00:18;3.40;;;2.78;;
69981;SDS011;57319;56.274;43.980;2022-12-11T01:02:44;3.10;;;2.90;;
69981;SDS011;57319;56.274;43.980;2022-12-11T01:05:10;3.17;;;2.97;;
69981;SDS011;57319;56.274;43.980;2022-12-11T01:07:35;4.43;;;2.88;;
69981;SDS011;57319;56.274;43.980;2022-12-11T01:10:02;2.72;;;2.53;;
69981;SDS011;57319;56.274;43.980;2022-12-11T01:12:46;3.05;;;2.90;;
69981;SDS011;57319;56.274;43.980;2022-12-11T01:15:12;3.60;;;2.80;;
69981;SDS011;57319;56.274;43.980;2022-12-11T01:17:38;2.90;;;2.67;;
69981;SDS011;57319;56.274;43.980;2022-12-11T01:20:03;2.60;;;2.50;;
69981;SDS011;57319;56.274;43.980;2022-12-11T01:22:30;2.45;;;2.33;;
69981;SDS011;57319;56.274;43.980;2022-12-11T01:24:55;2.38;;;2.28;;
69981;SDS011;57319;56.274;43.980;2022-12-11T01:27:21;2.28;;;2.17;;
69981;SDS011;57319;56.274;43.980;2022-12-11T01:29:47;2.35;;;2.25;;
69981;SDS011;57319;56.274;43.980;2022-12-11T01:32:13;2.35;;;2.25;;
69981;SDS011;57319;56.274;43.980;2022-12-11T01:34:39;2.22;;;2.03;;
69981;SDS011;57319;56.274;43.980;2022-12-11T01:37:05;4.72;;;2.60;;
69981;SDS011;57319;56.274;43.980;2022-12-11T01:39:31;2.03;;;1.98;;
69981;SDS011;57319;56.274;43.980;2022-12-11T01:41:57;2.53;;;2.40;;
69981;SDS011;57319;56.274;43.980;2022-12-11T01:46:49;1.77;;;1.75;;
69981;SDS011;57319;56.274;43.980;2022-12-11T01:49:15;2.10;;;2.00;;
69981;SDS011;57319;56.274;43.980;2022-12-11T01:51:46;2.30;;;2.20;;
69981;SDS011;57319;56.274;43.980;2022-12-11T01:54:16;2.00;;;1.90;;
69981;SDS011;57319;56.274;43.980;2022-12-11T01:56:44;2.00;;;1.95;;
69981;SDS011;57319;56.274;43.980;2022-12-11T01:59:12;2.20;;;2.05;;
69981;SDS011;57319;56.274;43.980;2022-12-11T02:01:43;2.33;;;2.22;;
69981;SDS011;57319;56.274;43.980;2022-12-11T02:04:19;2.85;;;2.67;;
69981;SDS011;57319;56.274;43.980;2022-12-11T02:06:49;2.35;;;2.25;;
69981;SDS011;57319;56.274;43.980;2022-12-11T02:09:23;1.98;;;1.98;;
69981;SDS011;57319;56.274;43.980;2022-12-11T02:12:01;2.47;;;2.13;;
69981;SDS011;57319;56.274;43.980;2022-12-11T02:17:11;2.00;;;1.90;;
69981;SDS011;57319;56.274;43.980;2022-12-11T02:22:54;2.08;;;1.98;;
69981;SDS011;57319;56.274;43.980;2022-12-11T02:30:47;1.63;;;1.63;;
69981;SDS011;57319;56.274;43.980;2022-12-11T02:33:20;1.55;;;1.55;;
69981;SDS011;57319;56.274;43.980;2022-12-11T02:35:47;1.88;;;1.80;;
69981;SDS011;57319;56.274;43.980;2022-12-11T02:38:16;1.73;;;1.63;;
69981;SDS011;57319;56.274;43.980;2022-12-11T02:40:46;1.77;;;1.67;;
69981;SDS011;57319;56.274;43.980;2022-12-11T02:43:15;1.77;;;1.60;;
69981;SDS011;57319;56.274;43.980;2022-12-11T02:45:43;1.60;;;1.60;;
69981;SDS011;57319;56.274;43.980;2022-12-11T02:48:11;1.42;;;1.42;;
69981;SDS011;57319;56.274;43.980;2022-12-11T02:50:41;1.45;;;1.45;;
69981;SDS011;57319;56.274;43.980;2022-12-11T02:53:11;1.83;;;1.73;;
69981;SDS011;57319;56.274;43.980;2022-12-11T02:55:40;1.60;;;1.60;;
69981;SDS011;57319;56.274;43.980;2022-12-11T03:00:43;1.80;;;1.80;;
69981;SDS011;57319;56.274;43.980;2022-12-11T03:03:10;1.80;;;1.70;;
69981;SDS011;57319;56.274;43.980;2022-12-11T03:05:37;1.65;;;1.55;;
69981;SDS011;57319;56.274;43.980;2022-12-11T03:08:03;3.15;;;1.90;;
69981;SDS011;57319;56.274;43.980;2022-12-11T03:10:29;1.77;;;1.42;;
69981;SDS011;57319;56.274;43.980;2022-12-11T03:12:54;2.00;;;1.75;;
69981;SDS011;57319;56.274;43.980;2022-12-11T03:15:27;2.00;;;2.00;;
69981;SDS011;57319;56.274;43.980;2022-12-11T03:20:43;2.15;;;2.05;;
69981;SDS011;57319;56.274;43.980;2022-12-11T03:28:14;3.20;;;1.75;;
69981;SDS011;57319;56.274;43.980;2022-12-11T03:30:43;1.60;;;1.60;;
69981;SDS011;57319;56.274;43.980;2022-12-11T03:33:18;1.73;;;1.73;;
69981;SDS011;57319;56.274;43.980;2022-12-11T03:35:58;1.38;;;1.38;;
69981;SDS011;57319;56.274;43.980;2022-12-11T03:38:50;1.70;;;1.70;;
69981;SDS011;57319;56.274;43.980;2022-12-11T03:41:21;2.10;;;2.00;;
69981;SDS011;57319;56.274;43.980;2022-12-11T03:43:50;1.63;;;1.52;;
69981;SDS011;57319;56.274;43.980;2022-12-11T03:46:19;1.70;;;1.70;;
69981;SDS011;57319;56.274;43.980;2022-12-11T03:48:48;1.75;;;1.58;;
69981;SDS011;57319;56.274;43.980;2022-12-11T03:51:15;1.95;;;1.95;;
69981;SDS011;57319;56.274;43.980;2022-12-11T03:53:42;1.77;;;1.77;;
69981;SDS011;57319;56.274;43.980;2022-12-11T03:56:09;1.67;;;1.67;;
69981;SDS011;57319;56.274;43.980;2022-12-11T03:58:36;1.70;;;1.70;;
69981;SDS011;57319;56.274;43.980;2022-12-11T04:01:02;1.67;;;1.67;;
69981;SDS011;57319;56.274;43.980;2022-12-11T04:03:28;2.08;;;2.00;;
69981;SDS011;57319;56.274;43.980;2022-12-11T04:05:54;1.85;;;1.83;;
69981;SDS011;57319;56.274;43.980;2022-12-11T04:08:20;2.00;;;1.90;;
69981;SDS011;57319;56.274;43.980;2022-12-11T04:10:47;3.33;;;1.95;;
69981;SDS011;57319;56.274;43.980;2022-12-11T04:13:34;1.58;;;1.58;;
69981;SDS011;57319;56.274;43.980;2022-12-11T04:16:00;1.90;;;1.80;;
69981;SDS011;57319;56.274;43.980;2022-12-11T04:18:25;1.90;;;1.80;;
69981;SDS011;57319;56.274;43.980;2022-12-11T04:21:09;3.08;;;1.77;;
69981;SDS011;57319;56.274;43.980;2022-12-11T04:23:54;1.90;;;1.80;;
69981;SDS011;57319;56.274;43.980;2022-12-11T04:26:38;1.90;;;1.80;;
69981;SDS011;57319;56.274;43.980;2022-12-11T04:29:03;1.65;;;1.55;;
69981;SDS011;57319;56.274;43.980;2022-12-11T04:31:29;1.52;;;1.52;;
69981;SDS011;57319;56.274;43.980;2022-12-11T04:33:55;1.88;;;1.88;;
69981;SDS011;57319;56.274;43.980;2022-12-11T04:36:20;1.77;;;1.67;;
69981;SDS011;57319;56.274;43.980;2022-12-11T04:38:46;1.90;;;1.80;;
69981;SDS011;57319;56.274;43.980;2022-12-11T04:41:12;1.20;;;1.20;;
69981;SDS011;57319;56.274;43.980;2022-12-11T04:43:40;2.92;;;2.50;;
69981;SDS011;57319;56.274;43.980;2022-12-11T04:46:07;3.63;;;2.00;;
69981;SDS011;57319;56.274;43.980;2022-12-11T04:48:35;2.22;;;2.13;;
69981;SDS011;57319;56.274;43.980;2022-12-11T04:51:01;1.63;;;1.63;;
69981;SDS011;57319;56.274;43.980;2022-12-11T04:53:28;1.38;;;1.38;;
69981;SDS011;57319;56.274;43.980;2022-12-11T04:55:53;1.60;;;1.60;;
69981;SDS011;57319;56.274;43.980;2022-12-11T04:58:20;1.63;;;1.52;;
69981;SDS011;57319;56.274;43.980;2022-12-11T05:00:46;2.30;;;1.48;;
69981;SDS011;57319;56.274;43.980;2022-12-11T05:03:12;1.42;;;1.42;;
69981;SDS011;57319;56.274;43.980;2022-12-11T05:05:38;3.17;;;1.58;;
69981;SDS011;57319;56.274;43.980;2022-12-11T05:08:03;2.40;;;1.60;;
69981;SDS011;57319;56.274;43.980;2022-12-11T05:10:29;1.50;;;1.40;;
69981;SDS011;57319;56.274;43.980;2022-12-11T05:12:55;1.88;;;1.77;;
69981;SDS011;57319;56.274;43.980;2022-12-11T05:15:21;3.58;;;1.55;;
69981;SDS011;57319;56.274;43.980;2022-12-11T05:17:47;1.58;;;1.52;;
69981;SDS011;57319;56.274;43.980;2022-12-11T05:20:13;2.00;;;1.88;;
69981;SDS011;57319;56.274;43.980;2022-12-11T05:22:39;1.33;;;1.33;;
69981;SDS011;57319;56.274;43.980;2022-12-11T05:25:05;1.35;;;1.35;;
69981;SDS011;57319;56.274;43.980;2022-12-11T05:27:31;1.80;;;1.70;;
69981;SDS011;57319;56.274;43.980;2022-12-11T05:29:57;1.80;;;1.70;;
69981;SDS011;57319;56.274;43.980;2022-12-11T05:32:23;1.38;;;1.38;;
69981;SDS011;57319;56.274;43.980;2022-12-11T05:34:49;2.50;;;2.00;;
69981;SDS011;57319;56.274;43.980;2022-12-11T05:37:15;1.65;;;1.58;;
69981;SDS011;57319;56.274;43.980;2022-12-11T05:39:41;1.80;;;1.80;;
69981;SDS011;57319;56.274;43.980;2022-12-11T05:42:06;1.88;;;1.70;;
69981;SDS011;57319;56.274;43.980;2022-12-11T05:44:32;1.80;;;1.80;;
69981;SDS011;57319;56.274;43.980;2022-12-11T05:46:58;1.35;;;1.33;;
69981;SDS011;57319;56.274;43.980;2022-12-11T05:49:23;1.65;;;1.55;;
69981;SDS011;57319;56.274;43.980;2022-12-11T05:51:49;2.33;;;2.17;;
69981;SDS011;57319;56.274;43.980;2022-12-11T05:54:15;3.75;;;1.85;;
69981;SDS011;57319;56.274;43.980;2022-12-11T05:56:41;2.17;;;1.70;;
69981;SDS011;57319;56.274;43.980;2022-12-11T05:59:06;2.65;;;1.60;;
69981;SDS011;57319;56.274;43.980;2022-12-11T06:01:34;2.13;;;2.03;;
69981;SDS011;57319;56.274;43.980;2022-12-11T06:04:02;1.73;;;1.63;;
69981;SDS011;57319;56.274;43.980;2022-12-11T06:06:29;1.40;;;1.40;;
69981;SDS011;57319;56.274;43.980;2022-12-11T06:08:56;1.80;;;1.80;;
69981;SDS011;57319;56.274;43.980;2022-12-11T06:11:23;1.83;;;1.75;;
69981;SDS011;57319;56.274;43.980;2022-12-11T06:13:49;1.80;;;1.70;;
69981;SDS011;57319;56.274;43.980;2022-12-11T06:16:16;1.35;;;1.35;;
69981;SDS011;57319;56.274;43.980;2022-12-11T06:18:42;2.15;;;1.60;;
69981;SDS011;57319;56.274;43.980;2022-12-11T06:21:10;1.40;;;1.40;;
69981;SDS011;57319;56.274;43.980;2022-12-11T06:23:40;3.45;;;1.88;;
69981;SDS011;57319;56.274;43.980;2022-12-11T06:26:07;2.05;;;1.73;;
69981;SDS011;57319;56.274;43.980;2022-12-11T06:28:33;2.45;;;1.90;;
69981;SDS011;57319;56.274;43.980;2022-12-11T06:30:59;1.90;;;1.80;;
69981;SDS011;57319;56.274;43.980;2022-12-11T06:33:25;2.20;;;2.03;;
69981;SDS011;57319;56.274;43.980;2022-12-11T06:35:51;3.47;;;2.00;;
69981;SDS011;57319;56.274;43.980;2022-12-11T06:38:17;1.75;;;1.65;;
69981;SDS011;57319;56.274;43.980;2022-12-11T06:40:43;1.80;;;1.80;;
69981;SDS011;57319;56.274;43.980;2022-12-11T06:43:09;4.35;;;2.20;;
69981;SDS011;57319;56.274;43.980;2022-12-11T06:45:35;1.95;;;1.83;;
69981;SDS011;57319;56.274;43.980;2022-12-11T06:48:02;2.85;;;1.85;;
69981;SDS011;57319;56.274;43.980;2022-12-11T06:50:28;4.97;;;1.42;;
69981;SDS011;57319;56.274;43.980;2022-12-11T06:52:54;3.10;;;1.73;;
69981;SDS011;57319;56.274;43.980;2022-12-11T06:55:20;2.28;;;2.10;;
69981;SDS011;57319;56.274;43.980;2022-12-11T06:57:46;1.73;;;1.63;;
69981;SDS011;57319;56.274;43.980;2022-12-11T07:00:13;2.53;;;1.98;;
69981;SDS011;57319;56.274;43.980;2022-12-11T07:02:39;2.40;;;2.20;;
69981;SDS011;57319;56.274;43.980;2022-12-11T07:05:05;3.72;;;2.05;;
69981;SDS011;57319;56.274;43.980;2022-12-11T07:07:31;4.00;;;2.05;;
69981;SDS011;57319;56.274;43.980;2022-12-11T07:09:58;2.50;;;2.30;;
69981;SDS011;57319;56.274;43.980;2022-12-11T07:12:24;2.60;;;2.50;;
69981;SDS011;57319;56.274;43.980;2022-12-11T07:14:50;3.65;;;2.13;;
69981;SDS011;57319;56.274;43.980;2022-12-11T07:17:16;2.17;;;2.08;;
69981;SDS011;57319;56.274;43.980;2022-12-11T07:19:41;2.53;;;2.08;;
69981;SDS011;57319;56.274;43.980;2022-12-11T07:22:07;2.28;;;2.17;;
69981;SDS011;57319;56.274;43.980;2022-12-11T07:24:33;3.83;;;2.50;;
69981;SDS011;57319;56.274;43.980;2022-12-11T07:26:58;2.03;;;1.92;;
69981;SDS011;57319;56.274;43.980;2022-12-11T07:29:24;11.57;;;2.45;;
69981;SDS011;57319;56.274;43.980;2022-12-11T07:31:50;2.97;;;2.25;;
69981;SDS011;57319;56.274;43.980;2022-12-11T07:34:15;2.17;;;2.08;;
69981;SDS011;57319;56.274;43.980;2022-12-11T07:36:41;1.88;;;1.88;;
69981;SDS011;57319;56.274;43.980;2022-12-11T07:39:09;7.10;;;2.15;;
69981;SDS011;57319;56.274;43.980;2022-12-11T07:41:36;2.42;;;1.80;;
69981;SDS011;57319;56.274;43.980;2022-12-11T07:44:01;2.15;;;2.03;;
69981;SDS011;57319;56.274;43.980;2022-12-11T07:46:28;3.55;;;2.47;;
69981;SDS011;57319;56.274;43.980;2022-12-11T07:48:55;2.28;;;2.17;;
69981;SDS011;57319;56.274;43.980;2022-12-11T07:51:22;2.25;;;2.05;;
69981;SDS011;57319;56.274;43.980;2022-12-11T07:53:52;2.03;;;2.03;;
69981;SDS011;57319;56.274;43.980;2022-12-11T07:56:21;4.82;;;2.08;;
69981;SDS011;57319;56.274;43.980;2022-12-11T07:58:47;2.03;;;1.92;;
69981;SDS011;57319;56.274;43.980;2022-12-11T08:01:17;2.15;;;2.03;;
69981;SDS011;57319;56.274;43.980;2022-12-11T08:03:48;6.82;;;2.33;;
69981;SDS011;57319;56.274;43.980;2022-12-11T08:06:15;1.80;;;1.80;;
69981;SDS011;57319;56.274;43.980;2022-12-11T08:08:41;2.22;;;2.03;;
69981;SDS011;57319;56.274;43.980;2022-12-11T08:11:08;7.38;;;2.38;;
69981;SDS011;57319;56.274;43.980;2022-12-11T08:13:36;3.50;;;2.20;;
69981;SDS011;57319;56.274;43.980;2022-12-11T08:16:02;3.42;;;2.72;;
69981;SDS011;57319;56.274;43.980;2022-12-11T08:18:32;3.22;;;2.00;;
69981;SDS011;57319;56.274;43.980;2022-12-11T08:20:58;13.32;;;2.30;;
69981;SDS011;57319;56.274;43.980;2022-12-11T08:23:29;4.93;;;1.77;;
69981;SDS011;57319;56.274;43.980;2022-12-11T08:25:55;3.03;;;1.88;;
69981;SDS011;57319;56.274;43.980;2022-12-11T08:28:20;2.25;;;2.10;;
69981;SDS011;57319;56.274;43.980;2022-12-11T08:30:46;2.28;;;2.00;;
69981;SDS011;57319;56.274;43.980;2022-12-11T08:33:12;2.35;;;2.17;;
69981;SDS011;57319;56.274;43.980;2022-12-11T08:35:38;7.43;;;2.00;;
69981;SDS011;57319;56.274;43.980;2022-12-11T08:38:04;2.70;;;2.50;;
69981;SDS011;57319;56.274;43.980;2022-12-11T08:40:29;1.88;;;1.83;;
69981;SDS011;57319;56.274;43.980;2022-12-11T08:42:55;3.42;;;1.80;;
69981;SDS011;57319;56.274;43.980;2022-12-11T08:45:21;1.70;;;1.60;;
69981;SDS011;57319;56.274;43.980;2022-12-11T08:47:46;2.75;;;1.92;;
69981;SDS011;57319;56.274;43.980;2022-12-11T08:50:12;2.65;;;1.90;;
69981;SDS011;57319;56.274;43.980;2022-12-11T08:52:37;2.05;;;1.55;;
69981;SDS011;57319;56.274;43.980;2022-12-11T08:55:03;1.73;;;1.67;;
69981;SDS011;57319;56.274;43.980;2022-12-11T08:57:29;1.85;;;1.75;;
69981;SDS011;57319;56.274;43.980;2022-12-11T08:59:55;2.47;;;2.00;;
69981;SDS011;57319;56.274;43.980;2022-12-11T09:02:20;3.10;;;1.80;;
69981;SDS011;57319;56.274;43.980;2022-12-11T09:04:46;1.90;;;1.80;;
69981;SDS011;57319;56.274;43.980;2022-12-11T09:07:11;4.25;;;1.92;;
69981;SDS011;57319;56.274;43.980;2022-12-11T09:09:37;1.80;;;1.70;;
69981;SDS011;57319;56.274;43.980;2022-12-11T09:12:03;11.02;;;2.00;;
69981;SDS011;57319;56.274;43.980;2022-12-11T09:14:29;2.25;;;1.85;;
69981;SDS011;57319;56.274;43.980;2022-12-11T09:16:55;2.22;;;1.60;;
69981;SDS011;57319;56.274;43.980;2022-12-11T09:19:20;1.83;;;1.48;;
69981;SDS011;57319;56.274;43.980;2022-12-11T09:21:46;5.82;;;1.80;;
69981;SDS011;57319;56.274;43.980;2022-12-11T09:24:12;1.60;;;1.55;;
69981;SDS011;57319;56.274;43.980;2022-12-11T09:26:38;1.70;;;1.60;;
69981;SDS011;57319;56.274;43.980;2022-12-11T09:29:04;1.73;;;1.67;;
69981;SDS011;57319;56.274;43.980;2022-12-11T09:31:32;1.70;;;1.60;;
69981;SDS011;57319;56.274;43.980;2022-12-11T09:34:01;1.88;;;1.77;;
69981;SDS011;57319;56.274;43.980;2022-12-11T09:36:31;2.25;;;1.40;;
69981;SDS011;57319;56.274;43.980;2022-12-11T09:39:01;1.90;;;1.88;;
69981;SDS011;57319;56.274;43.980;2022-12-11T09:41:35;3.75;;;1.38;;
69981;SDS011;57319;56.274;43.980;2022-12-11T09:44:23;2.88;;;1.55;;
69981;SDS011;57319;56.274;43.980;2022-12-11T09:46:57;2.33;;;2.10;;
69981;SDS011;57319;56.274;43.980;2022-12-11T09:49:27;5.18;;;1.63;;
69981;SDS011;57319;56.274;43.980;2022-12-11T09:55:32;1.50;;;1.50;;
69981;SDS011;57319;56.274;43.980;2022-12-11T10:00:17;7.68;;;2.83;;
69981;SDS011;57319;56.274;43.980;2022-12-11T10:02:53;4.30;;;3.90;;
69981;SDS011;57319;56.274;43.980;2022-12-11T10:05:46;3.55;;;3.25;;
69981;SDS011;57319;56.274;43.980;2022-12-11T10:08:29;3.13;;;2.83;;
69981;SDS011;57319;56.274;43.980;2022-12-11T10:11:19;2.35;;;2.08;;
69981;SDS011;57319;56.274;43.980;2022-12-11T10:14:14;3.22;;;1.55;;
69981;SDS011;57319;56.274;43.980;2022-12-11T10:16:53;3.75;;;1.67;;
69981;SDS011;57319;56.274;43.980;2022-12-11T10:19:28;2.70;;;1.60;;
69981;SDS011;57319;56.274;43.980;2022-12-11T10:21:56;2.92;;;1.48;;
69981;SDS011;57319;56.274;43.980;2022-12-11T10:24:30;1.88;;;1.75;;
69981;SDS011;57319;56.274;43.980;2022-12-11T10:27:08;1.90;;;1.63;;
69981;SDS011;57319;56.274;43.980;2022-12-11T10:29:40;1.70;;;1.60;;
69981;SDS011;57319;56.274;43.980;2022-12-11T10:32:06;1.70;;;1.70;;
69981;SDS011;57319;56.274;43.980;2022-12-11T10:34:43;7.43;;;2.30;;
69981;SDS011;57319;56.274;43.980;2022-12-11T10:37:13;11.00;;;2.05;;
69981;SDS011;57319;56.274;43.980;2022-12-11T10:39:39;3.50;;;1.90;;
69981;SDS011;57319;56.274;43.980;2022-12-11T10:42:20;2.10;;;1.98;;
69981;SDS011;57319;56.274;43.980;2022-12-11T10:45:20;1.90;;;1.80;;
69981;SDS011;57319;56.274;43.980;2022-12-11T10:47:42;6.20;;;2.08;;
69981;SDS011;57319;56.274;43.980;2022-12-11T10:50:20;3.80;;;2.00;;
69981;SDS011;57319;56.274;43.980;2022-12-11T10:52:48;1.92;;;1.83;;
69981;SDS011;57319;56.274;43.980;2022-12-11T10:55:37;2.08;;;1.92;;
69981;SDS011;57319;56.274;43.980;2022-12-11T10:58:18;2.47;;;1.85;;
69981;SDS011;57319;56.274;43.980;2022-12-11T11:00:48;5.80;;;1.92;;
69981;SDS011;57319;56.274;43.980;2022-12-11T11:03:25;1.95;;;1.80;;
69981;SDS011;57319;56.274;43.980;2022-12-11T11:06:05;2.08;;;1.80;;
69981;SDS011;57319;56.274;43.980;2022-12-11T11:08:40;4.18;;;1.77;;
69981;SDS011;57319;56.274;43.980;2022-12-11T11:14:02;7.70;;;2.97;;
69981;SDS011;57319;56.274;43.980;2022-12-11T11:16:35;4.55;;;1.80;;
69981;SDS011;57319;56.274;43.980;2022-12-11T11:19:02;3.30;;;1.90;;
69981;SDS011;57319;56.274;43.980;2022-12-11T11:21:30;4.80;;;2.03;;
69981;SDS011;57319;56.274;43.980;2022-12-11T11:23:58;1.98;;;1.90;;
69981;SDS011;57319;56.274;43.980;2022-12-11T11:26:24;6.90;;;2.03;;
69981;SDS011;57319;56.274;43.980;2022-12-11T11:28:56;3.35;;;2.20;;
69981;SDS011;57319;56.274;43.980;2022-12-11T11:31:32;2.95;;;2.28;;
69981;SDS011;57319;56.274;43.980;2022-12-11T11:34:00;2.80;;;2.60;;
69981;SDS011;57319;56.274;43.980;2022-12-11T11:36:30;7.22;;;2.88;;
69981;SDS011;57319;56.274;43.980;2022-12-11T11:44:22;4.95;;;2.97;;
69981;SDS011;57319;56.274;43.980;2022-12-11T11:47:02;3.45;;;2.38;;
69981;SDS011;57319;56.274;43.980;2022-12-11T11:52:40;10.13;;;2.20;;
69981;SDS011;57319;56.274;43.980;2022-12-11T11:58:08;3.90;;;3.38;;
69981;SDS011;57319;56.274;43.980;2022-12-11T12:00:40;7.90;;;2.50;;
69981;SDS011;57319;56.274;43.980;2022-12-11T12:03:10;5.30;;;2.35;;
69981;SDS011;57319;56.274;43.980;2022-12-11T12:16:10;3.20;;;2.47;;
69981;SDS011;57319;56.274;43.980;2022-12-11T12:19:07;2.50;;;2.28;;
69981;SDS011;57319;56.274;43.980;2022-12-11T12:21:46;2.90;;;2.58;;
69981;SDS011;57319;56.274;43.980;2022-12-11T12:27:20;6.03;;;2.47;;
69981;SDS011;57319;56.274;43.980;2022-12-11T12:30:03;3.67;;;2.22;;
69981;SDS011;57319;56.274;43.980;2022-12-11T12:37:56;2.85;;;2.55;;
69981;SDS011;57319;56.274;43.980;2022-12-11T12:40:43;5.30;;;2.28;;
69981;SDS011;57319;56.274;43.980;2022-12-11T12:46:08;2.50;;;2.33;;
69981;SDS011;57319;56.274;43.980;2022-12-11T12:48:50;2.25;;;2.15;;
69981;SDS011;57319;56.274;43.980;2022-12-11T12:51:18;3.42;;;2.30;;
69981;SDS011;57319;56.274;43.980;2022-12-11T12:53:55;5.57;;;2.42;;
69981;SDS011;57319;56.274;43.980;2022-12-11T12:56:25;3.85;;;2.17;;
69981;SDS011;57319;56.274;43.980;2022-12-11T12:58:53;2.45;;;2.25;;
69981;SDS011;57319;56.274;43.980;2022-12-11T13:01:20;8.52;;;1.88;;
69981;SDS011;57319;56.274;43.980;2022-12-11T13:06:55;2.17;;;2.08;;
69981;SDS011;57319;56.274;43.980;2022-12-11T13:09:22;2.17;;;2.08;;
69981;SDS011;57319;56.274;43.980;2022-12-11T13:11:51;5.28;;;2.10;;
69981;SDS011;57319;56.274;43.980;2022-12-11T13:14:22;2.67;;;2.58;;
69981;SDS011;57319;56.274;43.980;2022-12-11T13:19:44;7.72;;;2.40;;
69981;SDS011;57319;56.274;43.980;2022-12-11T13:27:24;2.50;;;2.28;;
69981;SDS011;57319;56.274;43.980;2022-12-11T13:30:04;2.67;;;2.50;;
69981;SDS011;57319;56.274;43.980;2022-12-11T13:32:42;4.80;;;2.80;;
69981;SDS011;57319;56.274;43.980;2022-12-11T13:35:33;6.47;;;2.83;;
69981;SDS011;57319;56.274;43.980;2022-12-11T13:38:03;5.07;;;2.33;;
69981;SDS011;57319;56.274;43.980;2022-12-11T13:40:32;2.40;;;2.30;;
69981;SDS011;57319;56.274;43.980;2022-12-11T13:43:22;4.65;;;2.70;;
69981;SDS011;57319;56.274;43.980;2022-12-11T13:45:52;5.40;;;3.00;;
69981;SDS011;57319;56.274;43.980;2022-12-11T13:48:25;3.58;;;3.28;;
69981;SDS011;57319;56.274;43.980;2022-12-11T13:50:55;5.78;;;4.10;;
69981;SDS011;57319;56.274;43.980;2022-12-11T13:53:22;4.78;;;4.20;;
69981;SDS011;57319;56.274;43.980;2022-12-11T13:55:55;6.63;;;4.47;;
69981;SDS011;57319;56.274;43.980;2022-12-11T13:58:26;3.95;;;3.67;;
69981;SDS011;57319;56.274;43.980;2022-12-11T14:00:56;3.88;;;3.58;;
69981;SDS011;57319;56.274;43.980;2022-12-11T14:03:30;4.25;;;3.53;;
69981;SDS011;57319;56.274;43.980;2022-12-11T14:05:57;3.13;;;2.92;;
69981;SDS011;57319;56.274;43.980;2022-12-11T14:08:26;8.57;;;3.13;;
69981;SDS011;57319;56.274;43.980;2022-12-11T14:10:56;3.03;;;2.83;;
69981;SDS011;57319;56.274;43.980;2022-12-11T14:13:25;3.95;;;2.80;;
69981;SDS011;57319;56.274;43.980;2022-12-11T14:15:58;2.83;;;2.63;;
69981;SDS011;57319;56.274;43.980;2022-12-11T14:18:26;2.60;;;2.50;;
69981;SDS011;57319;56.274;43.980;2022-12-11T14:20:55;2.80;;;2.70;;
69981;SDS011;57319;56.274;43.980;2022-12-11T14:23:24;3.42;;;2.13;;
69981;SDS011;57319;56.274;43.980;2022-12-11T14:25:58;2.72;;;2.53;;
69981;SDS011;57319;56.274;43.980;2022-12-11T14:28:26;3.33;;;2.40;;
69981;SDS011;57319;56.274;43.980;2022-12-11T14:30:57;2.60;;;2.40;;
69981;SDS011;57319;56.274;43.980;2022-12-11T14:33:26;2.63;;;2.53;;
69981;SDS011;57319;56.274;43.980;2022-12-11T14:35:56;2.38;;;2.22;;
69981;SDS011;57319;56.274;43.980;2022-12-11T14:38:26;2.00;;;2.00;;
69981;SDS011;57319;56.274;43.980;2022-12-11T14:40:56;2.47;;;2.30;;
69981;SDS011;57319;56.274;43.980;2022-12-11T14:43:27;2.28;;;2.20;;
69981;SDS011;57319;56.274;43.980;2022-12-11T14:46:03;6.97;;;2.78;;
69981;SDS011;57319;56.274;43.980;2022-12-11T14:48:36;2.60;;;2.42;;
69981;SDS011;57319;56.274;43.980;2022-12-11T14:51:13;3.53;;;2.65;;
69981;SDS011;57319;56.274;43.980;2022-12-11T14:53:51;2.50;;;2.40;;
69981;SDS011;57319;56.274;43.980;2022-12-11T14:56:20;3.63;;;2.85;;
69981;SDS011;57319;56.274;43.980;2022-12-11T14:58:52;4.47;;;2.70;;
69981;SDS011;57319;56.274;43.980;2022-12-11T15:04:02;7.60;;;3.40;;
69981;SDS011;57319;56.274;43.980;2022-12-11T15:06:31;6.10;;;4.07;;
69981;SDS011;57319;56.274;43.980;2022-12-11T15:11:50;4.57;;;2.67;;
69981;SDS011;57319;56.274;43.980;2022-12-11T15:14:19;5.30;;;2.70;;
69981;SDS011;57319;56.274;43.980;2022-12-11T15:16:48;2.58;;;2.47;;
69981;SDS011;57319;56.274;43.980;2022-12-11T15:19:20;2.70;;;2.30;;
69981;SDS011;57319;56.274;43.980;2022-12-11T15:21:49;4.05;;;2.92;;
69981;SDS011;57319;56.274;43.980;2022-12-11T15:24:21;5.40;;;2.95;;
69981;SDS011;57319;56.274;43.980;2022-12-11T15:26:50;2.67;;;2.47;;
69981;SDS011;57319;56.274;43.980;2022-12-11T15:29:24;2.97;;;2.70;;
69981;SDS011;57319;56.274;43.980;2022-12-11T15:34:24;2.57;;;2.37;;
69981;SDS011;57319;56.274;43.980;2022-12-11T15:36:50;2.42;;;2.33;;
69981;SDS011;57319;56.274;43.980;2022-12-11T15:39:15;2.40;;;2.30;;
69981;SDS011;57319;56.274;43.980;2022-12-11T15:41:41;2.85;;;2.63;;
69981;SDS011;57319;56.274;43.980;2022-12-11T15:44:07;2.58;;;2.47;;
69981;SDS011;57319;56.274;43.980;2022-12-11T15:46:43;5.30;;;2.88;;
69981;SDS011;57319;56.274;43.980;2022-12-11T15:49:12;4.88;;;2.85;;
69981;SDS011;57319;56.274;43.980;2022-12-11T15:51:38;3.03;;;2.83;;
69981;SDS011;57319;56.274;43.980;2022-12-11T15:54:04;2.58;;;2.47;;
69981;SDS011;57319;56.274;43.980;2022-12-11T15:56:29;2.25;;;2.17;;
69981;SDS011;57319;56.274;43.980;2022-12-11T15:58:56;2.72;;;2.47;;
69981;SDS011;57319;56.274;43.980;2022-12-11T16:01:28;3.60;;;2.70;;
69981;SDS011;57319;56.274;43.980;2022-12-11T16:03:54;3.45;;;3.10;;
69981;SDS011;57319;56.274;43.980;2022-12-11T16:06:20;3.35;;;3.15;;
69981;SDS011;57319;56.274;43.980;2022-12-11T16:08:45;4.43;;;3.75;;
69981;SDS011;57319;56.274;43.980;2022-12-11T16:11:11;3.85;;;3.40;;